sensor_id;sensor_type;location;lat;lon;timestamp;pressure;altitude;pressure_sealevel;temperature;humidity
38786;BME280;24535;45.508;12.252;2022-11-15T00:00:09;101912.63;;;15.71;64.19
38786;BME280;24535;45.508;12.252;2022-11-15T00:02:35;101911.91;;;15.69;64.89
38786;BME280;24535;45.508;12.252;2022-11-15T00:05:10;101911.16;;;15.67;64.77
38786;BME280;24535;45.508;12.252;2022-11-15T00:10:40;101908.41;;;15.68;64.43
38786;BME280;24535;45.508;12.252;2022-11-15T00:16:21;101902.34;;;15.66;64.71
38786;BME280;24535;45.508;12.252;2022-11-15T00:18:50;101888.38;;;15.63;64.46
38786;BME280;24535;45.508;12.252;2022-11-15T00:21:36;101897.19;;;15.63;64.34
38786;BME280;24535;45.508;12.252;2022-11-15T00:24:04;101896.56;;;15.59;64.44
38786;BME280;24535;45.508;12.252;2022-11-15T00:26:30;101893.06;;;15.59;64.30
38786;BME280;24535;45.508;12.252;2022-11-15T00:28:56;101888.91;;;15.55;64.31
38786;BME280;24535;45.508;12.252;2022-11-15T00:31:22;101878.41;;;15.53;64.72
38786;BME280;24535;45.508;12.252;2022-11-15T00:33:57;101881.06;;;15.53;64.02
38786;BME280;24535;45.508;12.252;2022-11-15T00:36:23;101868.09;;;15.49;64.02
38786;BME280;24535;45.508;12.252;2022-11-15T00:46:36;101874.25;;;15.24;63.99
38786;BME280;24535;45.508;12.252;2022-11-15T00:49:09;101869.56;;;15.15;64.38
38786;BME280;24535;45.508;12.252;2022-11-15T00:51:35;101877.09;;;15.08;63.87
38786;BME280;24535;45.508;12.252;2022-11-15T00:54:06;101868.91;;;14.98;64.38
38786;BME280;24535;45.508;12.252;2022-11-15T00:56:32;101876.84;;;14.98;64.61
38786;BME280;24535;45.508;12.252;2022-11-15T00:59:00;101873.56;;;14.95;64.46
38786;BME280;24535;45.508;12.252;2022-11-15T01:01:29;101865.16;;;14.88;64.80
38786;BME280;24535;45.508;12.252;2022-11-15T01:03:58;101864.06;;;14.78;65.27
38786;BME280;24535;45.508;12.252;2022-11-15T01:06:23;101864.19;;;14.76;64.86
38786;BME280;24535;45.508;12.252;2022-11-15T01:08:55;101861.84;;;14.72;65.19
38786;BME280;24535;45.508;12.252;2022-11-15T01:11:23;101861.06;;;14.70;65.38
38786;BME280;24535;45.508;12.252;2022-11-15T01:17:16;101861.22;;;14.54;64.78
38786;BME280;24535;45.508;12.252;2022-11-15T01:19:42;101865.31;;;14.45;65.32
38786;BME280;24535;45.508;12.252;2022-11-15T01:22:08;101868.06;;;14.44;65.38
38786;BME280;24535;45.508;12.252;2022-11-15T01:24:37;101861.25;;;14.40;64.83
38786;BME280;24535;45.508;12.252;2022-11-15T01:27:02;101847.97;;;14.27;65.06
38786;BME280;24535;45.508;12.252;2022-11-15T01:29:28;101854.41;;;14.23;65.50
38786;BME280;24535;45.508;12.252;2022-11-15T01:31:53;101849.94;;;14.23;65.71
38786;BME280;24535;45.508;12.252;2022-11-15T01:34:19;101851.00;;;14.21;65.61
38786;BME280;24535;45.508;12.252;2022-11-15T01:36:51;101853.09;;;14.16;66.00
38786;BME280;24535;45.508;12.252;2022-11-15T01:39:19;101852.31;;;14.14;65.54
38786;BME280;24535;45.508;12.252;2022-11-15T01:41:44;101857.63;;;14.14;65.91
38786;BME280;24535;45.508;12.252;2022-11-15T01:47:31;101864.38;;;14.05;65.65
38786;BME280;24535;45.508;12.252;2022-11-15T01:50:19;101855.00;;;13.99;66.14
38786;BME280;24535;45.508;12.252;2022-11-15T01:52:55;101858.50;;;14.00;66.86
38786;BME280;24535;45.508;12.252;2022-11-15T01:55:24;101860.78;;;14.06;66.77
38786;BME280;24535;45.508;12.252;2022-11-15T01:57:54;101861.16;;;14.14;66.53
38786;BME280;24535;45.508;12.252;2022-11-15T02:00:21;101864.25;;;14.21;66.50
38786;BME280;24535;45.508;12.252;2022-11-15T02:02:53;101859.50;;;14.26;66.45
38786;BME280;24535;45.508;12.252;2022-11-15T02:05:18;101852.13;;;14.31;66.44
38786;BME280;24535;45.508;12.252;2022-11-15T02:07:44;101847.47;;;14.34;66.03
38786;BME280;24535;45.508;12.252;2022-11-15T02:10:13;101840.38;;;14.35;65.93
38786;BME280;24535;45.508;12.252;2022-11-15T02:12:39;101829.00;;;14.33;65.30
38786;BME280;24535;45.508;12.252;2022-11-15T02:15:24;101843.00;;;14.35;65.70
38786;BME280;24535;45.508;12.252;2022-11-15T02:18:09;101843.31;;;14.30;65.69
38786;BME280;24535;45.508;12.252;2022-11-15T02:26:38;101838.84;;;14.31;66.63
38786;BME280;24535;45.508;12.252;2022-11-15T02:32:38;101831.16;;;14.41;66.07
38786;BME280;24535;45.508;12.252;2022-11-15T02:38:29;101837.94;;;14.45;66.18
38786;BME280;24535;45.508;12.252;2022-11-15T02:44:06;101840.13;;;14.52;65.47
38786;BME280;24535;45.508;12.252;2022-11-15T02:47:03;101833.13;;;14.51;65.89
38786;BME280;24535;45.508;12.252;2022-11-15T02:49:57;101839.94;;;14.55;65.93
38786;BME280;24535;45.508;12.252;2022-11-15T02:52:24;101836.31;;;14.56;65.41
38786;BME280;24535;45.508;12.252;2022-11-15T02:54:55;101815.63;;;14.49;65.10
38786;BME280;24535;45.508;12.252;2022-11-15T02:57:53;101823.91;;;14.57;65.31
38786;BME280;24535;45.508;12.252;2022-11-15T03:00:25;101818.34;;;14.47;64.69
38786;BME280;24535;45.508;12.252;2022-11-15T03:06:03;101806.41;;;14.27;64.33
38786;BME280;24535;45.508;12.252;2022-11-15T03:08:39;101800.81;;;14.18;64.76
38786;BME280;24535;45.508;12.252;2022-11-15T03:11:20;101818.81;;;14.13;64.60
38786;BME280;24535;45.508;12.252;2022-11-15T03:14:06;101817.31;;;14.08;65.64
38786;BME280;24535;45.508;12.252;2022-11-15T03:21:45;101799.63;;;13.82;65.07
38786;BME280;24535;45.508;12.252;2022-11-15T03:24:13;101794.69;;;13.76;64.74
38786;BME280;24535;45.508;12.252;2022-11-15T03:26:53;101805.47;;;13.73;64.97
38786;BME280;24535;45.508;12.252;2022-11-15T03:29:24;101793.47;;;13.67;65.03
38786;BME280;24535;45.508;12.252;2022-11-15T03:32:04;101790.75;;;13.54;65.28
38786;BME280;24535;45.508;12.252;2022-11-15T03:34:44;101800.97;;;13.46;65.08
38786;BME280;24535;45.508;12.252;2022-11-15T03:37:14;101796.88;;;13.41;64.85
38786;BME280;24535;45.508;12.252;2022-11-15T03:42:49;101812.31;;;13.34;66.75
38786;BME280;24535;45.508;12.252;2022-11-15T03:45:39;101802.75;;;13.31;67.11
38786;BME280;24535;45.508;12.252;2022-11-15T03:48:22;101802.41;;;13.38;66.57
38786;BME280;24535;45.508;12.252;2022-11-15T03:50:56;101797.84;;;13.40;65.44
38786;BME280;24535;45.508;12.252;2022-11-15T03:53:37;101793.84;;;13.32;65.38
38786;BME280;24535;45.508;12.252;2022-11-15T03:56:03;101798.59;;;13.27;65.32
38786;BME280;24535;45.508;12.252;2022-11-15T03:58:29;101794.19;;;13.12;64.82
38786;BME280;24535;45.508;12.252;2022-11-15T04:00:54;101794.75;;;13.03;65.58
38786;BME280;24535;45.508;12.252;2022-11-15T04:03:20;101800.31;;;12.98;65.53
38786;BME280;24535;45.508;12.252;2022-11-15T04:05:47;101794.81;;;12.87;65.58
38786;BME280;24535;45.508;12.252;2022-11-15T04:08:44;101791.50;;;12.83;66.16
38786;BME280;24535;45.508;12.252;2022-11-15T04:11:09;101790.84;;;12.80;66.04
38786;BME280;24535;45.508;12.252;2022-11-15T04:13:35;101797.47;;;12.87;67.76
38786;BME280;24535;45.508;12.252;2022-11-15T04:16:00;101796.66;;;13.01;67.49
38786;BME280;24535;45.508;12.252;2022-11-15T04:20:57;101788.63;;;13.02;66.67
38786;BME280;24535;45.508;12.252;2022-11-15T04:23:42;101789.38;;;13.04;66.65
38786;BME280;24535;45.508;12.252;2022-11-15T04:26:32;101793.44;;;13.10;66.21
38786;BME280;24535;45.508;12.252;2022-11-15T04:28:58;101783.03;;;13.07;66.60
38786;BME280;24535;45.508;12.252;2022-11-15T04:31:45;101781.75;;;13.14;67.02
38786;BME280;24535;45.508;12.252;2022-11-15T04:34:10;101780.50;;;13.20;66.04
38786;BME280;24535;45.508;12.252;2022-11-15T04:37:04;101788.19;;;13.24;67.11
38786;BME280;24535;45.508;12.252;2022-11-15T04:39:50;101789.28;;;13.20;66.35
38786;BME280;24535;45.508;12.252;2022-11-15T04:42:16;101788.25;;;13.08;65.89
38786;BME280;24535;45.508;12.252;2022-11-15T04:44:43;101798.25;;;13.03;66.50
38786;BME280;24535;45.508;12.252;2022-11-15T04:47:08;101800.03;;;13.03;67.24
38786;BME280;24535;45.508;12.252;2022-11-15T04:49:34;101800.72;;;13.06;67.19
38786;BME280;24535;45.508;12.252;2022-11-15T04:51:59;101807.41;;;13.12;66.56
38786;BME280;24535;45.508;12.252;2022-11-15T04:54:25;101808.19;;;13.14;66.89
38786;BME280;24535;45.508;12.252;2022-11-15T04:56:50;101796.19;;;13.08;66.24
38786;BME280;24535;45.508;12.252;2022-11-15T04:59:20;101802.41;;;13.07;65.92
38786;BME280;24535;45.508;12.252;2022-11-15T05:01:49;101805.91;;;13.08;66.17
38786;BME280;24535;45.508;12.252;2022-11-15T05:04:14;101810.34;;;13.07;65.77
38786;BME280;24535;45.508;12.252;2022-11-15T05:14:57;101800.94;;;13.32;66.23
38786;BME280;24535;45.508;12.252;2022-11-15T05:17:23;101794.75;;;13.33;66.22
38786;BME280;24535;45.508;12.252;2022-11-15T05:19:48;101790.06;;;13.36;66.09
38786;BME280;24535;45.508;12.252;2022-11-15T05:22:14;101794.91;;;13.30;65.69
38786;BME280;24535;45.508;12.252;2022-11-15T05:24:43;101778.91;;;13.17;65.41
38786;BME280;24535;45.508;12.252;2022-11-15T05:27:25;101784.66;;;13.09;65.34
38786;BME280;24535;45.508;12.252;2022-11-15T05:29:54;101785.97;;;13.02;65.59
38786;BME280;24535;45.508;12.252;2022-11-15T05:32:28;101780.56;;;12.90;65.00
38786;BME280;24535;45.508;12.252;2022-11-15T05:37:57;101785.94;;;12.88;66.09
38786;BME280;24535;45.508;12.252;2022-11-15T05:40:30;101773.84;;;12.84;66.11
38786;BME280;24535;45.508;12.252;2022-11-15T05:42:57;101780.06;;;12.83;65.74
38786;BME280;24535;45.508;12.252;2022-11-15T05:45:27;101778.38;;;12.82;65.76
38786;BME280;24535;45.508;12.252;2022-11-15T05:47:56;101775.16;;;12.77;65.80
38786;BME280;24535;45.508;12.252;2022-11-15T05:50:27;101762.75;;;12.63;65.38
38786;BME280;24535;45.508;12.252;2022-11-15T05:52:58;101755.94;;;12.59;65.94
38786;BME280;24535;45.508;12.252;2022-11-15T05:55:25;101764.41;;;12.50;65.96
38786;BME280;24535;45.508;12.252;2022-11-15T05:57:58;101767.06;;;12.50;66.09
38786;BME280;24535;45.508;12.252;2022-11-15T06:03:10;101770.28;;;12.55;66.18
38786;BME280;24535;45.508;12.252;2022-11-15T06:06:05;101765.38;;;12.49;65.61
38786;BME280;24535;45.508;12.252;2022-11-15T06:08:37;101772.44;;;12.48;65.88
38786;BME280;24535;45.508;12.252;2022-11-15T06:11:47;101766.81;;;12.38;65.53
38786;BME280;24535;45.508;12.252;2022-11-15T07:10:36;101824.09;;;13.28;66.37
38786;BME280;24535;45.508;12.252;2022-11-15T07:13:02;101831.50;;;13.38;65.59
38786;BME280;24535;45.508;12.252;2022-11-15T07:15:27;101814.19;;;13.32;65.37
38786;BME280;24535;45.508;12.252;2022-11-15T07:20:42;101835.00;;;13.38;64.74
38786;BME280;24535;45.508;12.252;2022-11-15T07:25:39;101824.97;;;13.29;64.43
38786;BME280;24535;45.508;12.252;2022-11-15T07:28:10;101811.50;;;13.18;63.52
38786;BME280;24535;45.508;12.252;2022-11-15T07:30:36;101816.97;;;13.15;64.20
38786;BME280;24535;45.508;12.252;2022-11-15T07:35:39;101820.47;;;13.15;64.01
38786;BME280;24535;45.508;12.252;2022-11-15T07:38:04;101819.63;;;13.15;65.01
38786;BME280;24535;45.508;12.252;2022-11-15T07:40:31;101813.97;;;13.21;64.28
38786;BME280;24535;45.508;12.252;2022-11-15T07:43:04;101824.03;;;13.30;64.93
38786;BME280;24535;45.508;12.252;2022-11-15T07:45:30;101820.63;;;13.42;65.62
38786;BME280;24535;45.508;12.252;2022-11-15T07:47:56;101832.94;;;13.57;65.13
38786;BME280;24535;45.508;12.252;2022-11-15T07:50:40;101820.13;;;13.64;64.46
38786;BME280;24535;45.508;12.252;2022-11-15T07:53:09;101821.34;;;13.73;63.94
38786;BME280;24535;45.508;12.252;2022-11-15T07:58:11;101822.31;;;13.86;63.97
38786;BME280;24535;45.508;12.252;2022-11-15T08:00:37;101834.13;;;13.95;64.36
38786;BME280;24535;45.508;12.252;2022-11-15T08:03:05;101819.25;;;13.92;63.45
38786;BME280;24535;45.508;12.252;2022-11-15T08:05:31;101821.41;;;14.00;63.90
38786;BME280;24535;45.508;12.252;2022-11-15T08:08:03;101819.63;;;14.00;62.86
38786;BME280;24535;45.508;12.252;2022-11-15T08:10:29;101825.97;;;13.98;63.08
38786;BME280;24535;45.508;12.252;2022-11-15T08:15:27;101834.31;;;13.92;62.57
38786;BME280;24535;45.508;12.252;2022-11-15T08:17:56;101809.06;;;13.86;63.07
38786;BME280;24535;45.508;12.252;2022-11-15T08:20:26;101820.69;;;13.83;62.96
38786;BME280;24535;45.508;12.252;2022-11-15T08:23:00;101818.91;;;13.84;63.42
38786;BME280;24535;45.508;12.252;2022-11-15T08:25:28;101817.69;;;13.75;63.33
38786;BME280;24535;45.508;12.252;2022-11-15T08:28:06;101818.81;;;13.85;63.12
38786;BME280;24535;45.508;12.252;2022-11-15T08:30:37;101809.44;;;13.80;62.94
38786;BME280;24535;45.508;12.252;2022-11-15T08:33:12;101817.19;;;13.83;63.36
38786;BME280;24535;45.508;12.252;2022-11-15T08:35:46;101814.63;;;13.96;64.09
38786;BME280;24535;45.508;12.252;2022-11-15T08:38:12;101814.88;;;14.05;63.75
38786;BME280;24535;45.508;12.252;2022-11-15T08:40:38;101817.38;;;14.21;63.30
38786;BME280;24535;45.508;12.252;2022-11-15T08:43:09;101806.59;;;14.24;63.53
38786;BME280;24535;45.508;12.252;2022-11-15T08:45:35;101805.31;;;14.30;63.15
38786;BME280;24535;45.508;12.252;2022-11-15T08:48:03;101798.88;;;14.34;62.88
38786;BME280;24535;45.508;12.252;2022-11-15T09:06:50;101791.75;;;14.49;62.71
38786;BME280;24535;45.508;12.252;2022-11-15T09:09:39;101792.22;;;14.55;62.51
38786;BME280;24535;45.508;12.252;2022-11-15T09:12:06;101798.56;;;14.66;62.10
38786;BME280;24535;45.508;12.252;2022-11-15T09:18:36;101791.44;;;14.53;61.98
38786;BME280;24535;45.508;12.252;2022-11-15T09:21:02;101786.53;;;14.47;62.13
38786;BME280;24535;45.508;12.252;2022-11-15T09:23:28;101792.59;;;14.49;62.12
38786;BME280;24535;45.508;12.252;2022-11-15T09:26:06;101785.41;;;14.51;62.88
38786;BME280;24535;45.508;12.252;2022-11-15T09:28:55;101786.72;;;14.58;62.41
38786;BME280;24535;45.508;12.252;2022-11-15T09:31:53;101790.09;;;14.61;62.73
38786;BME280;24535;45.508;12.252;2022-11-15T09:34:33;101784.47;;;14.65;62.22
38786;BME280;24535;45.508;12.252;2022-11-15T09:37:03;101783.81;;;14.62;62.61
38786;BME280;24535;45.508;12.252;2022-11-15T09:39:29;101791.69;;;14.63;62.46
38786;BME280;24535;45.508;12.252;2022-11-15T09:50:49;101786.72;;;14.71;62.79
38786;BME280;24535;45.508;12.252;2022-11-15T09:56:44;101792.03;;;14.71;63.32
38786;BME280;24535;45.508;12.252;2022-11-15T10:02:52;101773.47;;;14.84;63.49
38786;BME280;24535;45.508;12.252;2022-11-15T10:05:26;101767.84;;;14.89;63.07
38786;BME280;24535;45.508;12.252;2022-11-15T10:11:23;101761.38;;;15.05;62.79
38786;BME280;24535;45.508;12.252;2022-11-15T10:14:12;101763.72;;;15.10;62.86
38786;BME280;24535;45.508;12.252;2022-11-15T10:23:11;101754.25;;;15.44;62.09
38786;BME280;24535;45.508;12.252;2022-11-15T10:25:41;101740.63;;;15.49;62.74
38786;BME280;24535;45.508;12.252;2022-11-15T10:31:27;101727.38;;;15.86;62.24
38786;BME280;24535;45.508;12.252;2022-11-15T10:34:20;101727.78;;;15.92;61.15
38786;BME280;24535;45.508;12.252;2022-11-15T10:36:58;101725.50;;;15.99;61.28
38786;BME280;24535;45.508;12.252;2022-11-15T10:39:24;101713.19;;;15.98;61.31
38786;BME280;24535;45.508;12.252;2022-11-15T10:41:55;101715.50;;;16.02;61.27
38786;BME280;24535;45.508;12.252;2022-11-15T10:44:31;101713.00;;;16.12;61.79
38786;BME280;24535;45.508;12.252;2022-11-15T10:49:27;101708.06;;;16.19;60.32
38786;BME280;24535;45.508;12.252;2022-11-15T10:51:59;101710.72;;;16.19;60.66
38786;BME280;24535;45.508;12.252;2022-11-15T10:57:19;101688.75;;;16.17;60.26
38786;BME280;24535;45.508;12.252;2022-11-15T10:59:51;101686.81;;;16.19;60.72
38786;BME280;24535;45.508;12.252;2022-11-15T11:02:41;101687.56;;;16.21;59.98
38786;BME280;24535;45.508;12.252;2022-11-15T11:05:33;101675.19;;;16.20;60.31
38786;BME280;24535;45.508;12.252;2022-11-15T11:08:52;101674.47;;;16.18;60.22
38786;BME280;24535;45.508;12.252;2022-11-15T11:10:57;101664.91;;;16.15;60.06
38786;BME280;24535;45.508;12.252;2022-11-15T11:16:33;101676.16;;;16.19;60.23
38786;BME280;24535;45.508;12.252;2022-11-15T11:25:07;101654.75;;;16.09;60.29
38786;BME280;24535;45.508;12.252;2022-11-15T11:33:33;101649.44;;;16.20;60.42
38786;BME280;24535;45.508;12.252;2022-11-15T11:41:56;101629.06;;;16.21;59.95
38786;BME280;24535;45.508;12.252;2022-11-15T11:44:49;101632.19;;;16.26;60.53
38786;BME280;24535;45.508;12.252;2022-11-15T11:48:32;101634.63;;;16.29;59.87
38786;BME280;24535;45.508;12.252;2022-11-15T11:50:44;101637.28;;;16.29;59.82
38786;BME280;24535;45.508;12.252;2022-11-15T11:56:19;101625.78;;;16.28;60.71
38786;BME280;24535;45.508;12.252;2022-11-15T12:04:49;101618.31;;;16.34;59.37
38786;BME280;24535;45.508;12.252;2022-11-15T12:07:23;101603.56;;;16.29;59.78
38786;BME280;24535;45.508;12.252;2022-11-15T12:10:04;101610.34;;;16.34;59.94
38786;BME280;24535;45.508;12.252;2022-11-15T12:13:10;101603.31;;;16.32;59.83
38786;BME280;24535;45.508;12.252;2022-11-15T12:18:21;101598.50;;;16.38;60.38
38786;BME280;24535;45.508;12.252;2022-11-15T12:21:13;101590.41;;;16.39;59.57
38786;BME280;24535;45.508;12.252;2022-11-15T12:24:04;101589.41;;;16.40;60.38
38786;BME280;24535;45.508;12.252;2022-11-15T12:26:44;101593.44;;;16.46;60.07
38786;BME280;24535;45.508;12.252;2022-11-15T12:29:37;101581.94;;;16.45;59.80
38786;BME280;24535;45.508;12.252;2022-11-15T12:32:38;101575.88;;;16.43;59.86
38786;BME280;24535;45.508;12.252;2022-11-15T12:35:06;101585.56;;;16.44;59.41
38786;BME280;24535;45.508;12.252;2022-11-15T12:37:50;101581.44;;;16.40;59.62
38786;BME280;24535;45.508;12.252;2022-11-15T14:32:21;101478.09;;;16.02;62.97
38786;BME280;24535;45.508;12.252;2022-11-15T14:34:53;101478.69;;;15.94;62.91
38786;BME280;24535;45.508;12.252;2022-11-15T14:37:22;101477.72;;;15.95;63.08
38786;BME280;24535;45.508;12.252;2022-11-15T14:42:59;101473.50;;;15.93;62.72
38786;BME280;24535;45.508;12.252;2022-11-15T14:45:28;101468.66;;;15.87;63.38
38786;BME280;24535;45.508;12.252;2022-11-15T14:48:03;101473.59;;;15.91;62.53
38786;BME280;24535;45.508;12.252;2022-11-15T14:50:31;101476.53;;;15.88;63.63
38786;BME280;24535;45.508;12.252;2022-11-15T14:53:04;101466.00;;;15.87;63.01
38786;BME280;24535;45.508;12.252;2022-11-15T14:55:50;101458.03;;;15.87;63.88
38786;BME280;24535;45.508;12.252;2022-11-15T14:58:44;101462.28;;;15.89;64.48
38786;BME280;24535;45.508;12.252;2022-11-15T15:01:31;101467.81;;;15.86;64.23
38786;BME280;24535;45.508;12.252;2022-11-15T15:07:29;101454.41;;;15.76;64.39
38786;BME280;24535;45.508;12.252;2022-11-15T15:09:54;101451.84;;;15.75;64.55
38786;BME280;24535;45.508;12.252;2022-11-15T15:15:22;101431.78;;;15.71;64.54
38786;BME280;24535;45.508;12.252;2022-11-15T15:18:18;101436.16;;;15.72;64.98
38786;BME280;24535;45.508;12.252;2022-11-15T15:20:45;101439.06;;;15.69;65.02
38786;BME280;24535;45.508;12.252;2022-11-15T15:26:21;101437.78;;;15.62;64.76
38786;BME280;24535;45.508;12.252;2022-11-15T15:28:55;101425.50;;;15.61;65.40
38786;BME280;24535;45.508;12.252;2022-11-15T15:31:21;101434.28;;;15.61;64.78
38786;BME280;24535;45.508;12.252;2022-11-15T15:33:46;101432.63;;;15.60;65.46
38786;BME280;24535;45.508;12.252;2022-11-15T15:39:34;101424.03;;;15.56;65.27
38786;BME280;24535;45.508;12.252;2022-11-15T15:42:16;101425.84;;;15.56;65.43
38786;BME280;24535;45.508;12.252;2022-11-15T15:45:21;101421.59;;;15.53;65.24
38786;BME280;24535;45.508;12.252;2022-11-15T15:47:48;101420.28;;;15.48;65.19
38786;BME280;24535;45.508;12.252;2022-11-15T15:53:02;101416.50;;;15.39;65.61
38786;BME280;24535;45.508;12.252;2022-11-15T15:55:28;101415.03;;;15.35;65.93
38786;BME280;24535;45.508;12.252;2022-11-15T15:57:55;101419.75;;;15.31;65.79
38786;BME280;24535;45.508;12.252;2022-11-15T16:00:23;101418.28;;;15.27;66.29
38786;BME280;24535;45.508;12.252;2022-11-15T16:02:52;101407.06;;;15.24;66.44
38786;BME280;24535;45.508;12.252;2022-11-15T16:05:24;101411.28;;;15.26;66.33
38786;BME280;24535;45.508;12.252;2022-11-15T16:07:50;101412.59;;;15.21;66.71
38786;BME280;24535;45.508;12.252;2022-11-15T16:10:29;101413.56;;;15.20;66.48
38786;BME280;24535;45.508;12.252;2022-11-15T16:12:56;101414.50;;;15.19;66.44
38786;BME280;24535;45.508;12.252;2022-11-15T16:15:25;101407.00;;;15.13;66.52
38786;BME280;24535;45.508;12.252;2022-11-15T16:17:54;101411.25;;;15.15;66.87
38786;BME280;24535;45.508;12.252;2022-11-15T16:20:46;101409.66;;;15.13;66.95
38786;BME280;24535;45.508;12.252;2022-11-15T16:23:42;101408.22;;;15.08;67.18
38786;BME280;24535;45.508;12.252;2022-11-15T16:26:28;101411.56;;;15.11;67.36
38786;BME280;24535;45.508;12.252;2022-11-15T16:28:58;101419.66;;;15.09;67.10
38786;BME280;24535;45.508;12.252;2022-11-15T16:31:24;101416.41;;;15.05;67.27
38786;BME280;24535;45.508;12.252;2022-11-15T16:33:49;101416.16;;;15.08;67.55
38786;BME280;24535;45.508;12.252;2022-11-15T16:38:48;101398.66;;;15.06;67.73
38786;BME280;24535;45.508;12.252;2022-11-15T16:41:15;101413.28;;;15.12;67.67
38786;BME280;24535;45.508;12.252;2022-11-15T16:43:50;101408.09;;;15.10;67.70
38786;BME280;24535;45.508;12.252;2022-11-15T16:46:27;101411.47;;;15.12;67.63
38786;BME280;24535;45.508;12.252;2022-11-15T16:48:54;101405.94;;;15.15;67.71
38786;BME280;24535;45.508;12.252;2022-11-15T16:51:20;101403.28;;;15.15;67.29
38786;BME280;24535;45.508;12.252;2022-11-15T16:53:46;101411.75;;;15.20;67.59
38786;BME280;24535;45.508;12.252;2022-11-15T16:56:28;101410.78;;;15.21;67.42
38786;BME280;24535;45.508;12.252;2022-11-15T16:58:56;101403.03;;;15.18;67.22
38786;BME280;24535;45.508;12.252;2022-11-15T17:01:29;101403.78;;;15.20;67.71
38786;BME280;24535;45.508;12.252;2022-11-15T17:04:00;101408.13;;;15.21;67.48
38786;BME280;24535;45.508;12.252;2022-11-15T17:06:38;101403.78;;;15.20;67.61
38786;BME280;24535;45.508;12.252;2022-11-15T17:09:20;101396.91;;;15.18;67.16
38786;BME280;24535;45.508;12.252;2022-11-15T17:11:49;101414.41;;;15.20;67.48
38786;BME280;24535;45.508;12.252;2022-11-15T17:14:17;101410.91;;;15.20;67.44
38786;BME280;24535;45.508;12.252;2022-11-15T17:16:43;101410.44;;;15.26;67.65
38786;BME280;24535;45.508;12.252;2022-11-15T17:19:12;101396.44;;;15.24;67.27
38786;BME280;24535;45.508;12.252;2022-11-15T17:21:47;101407.41;;;15.30;67.23
38786;BME280;24535;45.508;12.252;2022-11-15T17:24:16;101403.22;;;15.28;66.93
38786;BME280;24535;45.508;12.252;2022-11-15T17:27:14;101402.38;;;15.27;67.26
38786;BME280;24535;45.508;12.252;2022-11-15T17:29:44;101392.81;;;15.25;67.48
38786;BME280;24535;45.508;12.252;2022-11-15T17:32:15;101389.09;;;15.27;67.56
38786;BME280;24535;45.508;12.252;2022-11-15T17:34:41;101391.13;;;15.24;67.50
38786;BME280;24535;45.508;12.252;2022-11-15T17:37:09;101391.97;;;15.24;67.56
38786;BME280;24535;45.508;12.252;2022-11-15T17:39:55;101387.50;;;15.25;67.47
38786;BME280;24535;45.508;12.252;2022-11-15T17:42:27;101394.41;;;15.27;67.33
38786;BME280;24535;45.508;12.252;2022-11-15T17:44:55;101396.19;;;15.27;67.24
38786;BME280;24535;45.508;12.252;2022-11-15T17:47:23;101394.41;;;15.27;67.22
38786;BME280;24535;45.508;12.252;2022-11-15T17:49:56;101395.97;;;15.30;67.49
38786;BME280;24535;45.508;12.252;2022-11-15T17:52:22;101393.44;;;15.28;67.65
38786;BME280;24535;45.508;12.252;2022-11-15T17:57:49;101379.19;;;15.29;67.08
38786;BME280;24535;45.508;12.252;2022-11-15T18:00:15;101371.22;;;15.29;66.98
38786;BME280;24535;45.508;12.252;2022-11-15T18:02:46;101370.50;;;15.27;66.76
38786;BME280;24535;45.508;12.252;2022-11-15T18:11:04;101358.44;;;15.23;67.46
38786;BME280;24535;45.508;12.252;2022-11-15T20:22:21;101256.00;;;15.32;67.09
38786;BME280;24535;45.508;12.252;2022-11-15T20:24:46;101262.75;;;15.36;66.67
38786;BME280;24535;45.508;12.252;2022-11-15T20:27:15;101259.97;;;15.38;66.75
38786;BME280;24535;45.508;12.252;2022-11-15T20:29:43;101252.16;;;15.36;66.25
38786;BME280;24535;45.508;12.252;2022-11-15T20:32:09;101254.53;;;15.39;66.22
38786;BME280;24535;45.508;12.252;2022-11-15T20:34:35;101256.13;;;15.42;65.84
38786;BME280;24535;45.508;12.252;2022-11-15T20:37:00;101249.13;;;15.41;66.34
38786;BME280;24535;45.508;12.252;2022-11-15T20:39:26;101251.41;;;15.45;65.98
38786;BME280;24535;45.508;12.252;2022-11-15T20:41:51;101248.00;;;15.43;66.36
38786;BME280;24535;45.508;12.252;2022-11-15T20:44:20;101244.66;;;15.41;65.75
38786;BME280;24535;45.508;12.252;2022-11-15T20:46:45;101237.91;;;15.37;65.86
38786;BME280;24535;45.508;12.252;2022-11-15T20:49:16;101238.59;;;15.39;66.42
38786;BME280;24535;45.508;12.252;2022-11-15T20:51:44;101239.72;;;15.37;66.49
38786;BME280;24535;45.508;12.252;2022-11-15T20:54:09;101231.13;;;15.33;66.08
38786;BME280;24535;45.508;12.252;2022-11-15T20:59:36;101233.06;;;15.31;66.82
38786;BME280;24535;45.508;12.252;2022-11-15T21:02:01;101224.50;;;15.27;66.60
38786;BME280;24535;45.508;12.252;2022-11-15T21:04:29;101226.31;;;15.27;66.61
38786;BME280;24535;45.508;12.252;2022-11-15T21:06:57;101210.25;;;15.17;66.63
38786;BME280;24535;45.508;12.252;2022-11-15T21:09:23;101206.31;;;15.12;67.01
38786;BME280;24535;45.508;12.252;2022-11-15T21:12:12;101207.50;;;15.07;66.98
38786;BME280;24535;45.508;12.252;2022-11-15T21:14:39;101197.47;;;15.00;67.31
38786;BME280;24535;45.508;12.252;2022-11-15T21:17:05;101195.06;;;14.97;67.25
38786;BME280;24535;45.508;12.252;2022-11-15T21:19:31;101188.06;;;14.96;67.70
38786;BME280;24535;45.508;12.252;2022-11-15T21:21:56;101182.03;;;14.94;67.76